Time;durP1;ratioP1;P1;durP2;ratioP2;P2;SDS_P1;SDS_P2;PMS_P1;PMS_P2;Temp;Humidity;BMP_temperature;BMP_pressure;BME280_temperature;BME280_humidity;BME280_pressure;Samples;Min_cycle;Max_cycle;Signal;HPM_P1;HPM_P2
2024/03/06 00:02:24;;;;;;;7.82;7.03;;;;;;;;;;5038051;28;20207;-95
2024/03/06 00:04:53;;;;;;;7.20;6.50;;;;;;;;;;5038302;28;20230;-95
2024/03/06 00:07:21;;;;;;;6.75;6.15;;;;;;;;;;5038256;28;20195;-94
2024/03/06 00:09:48;;;;;;;8.07;7.28;;;;;;;;;;5038390;28;20230;-95
2024/03/06 00:12:16;;;;;;;6.55;5.88;;;;;;;;;;5037475;28;20215;-93
2024/03/06 00:14:45;;;;;;;6.80;6.13;;;;;;;;;;5037877;28;20207;-95
2024/03/06 00:17:13;;;;;;;6.05;5.45;;;;;;;;;;5037862;28;20199;-95
2024/03/06 00:19:42;;;;;;;6.75;6.13;;;;;;;;;;5038118;28;20231;-93
2024/03/06 00:22:11;;;;;;;10.88;9.73;;;;;;;;;;5037971;28;20259;-95
2024/03/06 00:24:39;;;;;;;10.90;9.80;;;;;;;;;;5037625;28;20199;-94
2024/03/06 00:27:07;;;;;;;10.15;9.15;;;;;;;;;;5037321;28;20203;-95
2024/03/06 00:29:37;;;;;;;8.63;7.80;;;;;;;;;;5037671;28;20303;-94
2024/03/06 00:32:07;;;;;;;7.43;6.72;;;;;;;;;;5037596;28;20187;-95
2024/03/06 00:34:35;;;;;;;6.93;6.25;;;;;;;;;;5038859;28;20239;-95
2024/03/06 00:37:03;;;;;;;7.50;6.47;;;;;;;;;;5039299;28;20187;-94
2024/03/06 00:39:31;;;;;;;5.75;5.22;;;;;;;;;;5037567;28;20218;-95
2024/03/06 00:41:58;;;;;;;5.25;4.78;;;;;;;;;;5037545;28;20203;-94
2024/03/06 00:44:26;;;;;;;5.13;4.63;;;;;;;;;;5038597;28;20228;-95
2024/03/06 00:46:54;;;;;;;5.78;5.22;;;;;;;;;;5038682;28;20202;-93
2024/03/06 00:49:23;;;;;;;5.40;4.63;;;;;;;;;;5037885;28;20209;-93
2024/03/06 00:51:51;;;;;;;6.72;6.03;;;;;;;;;;5038267;28;20207;-95
2024/03/06 00:54:19;;;;;;;7.43;6.72;;;;;;;;;;5038243;28;20234;-95
2024/03/06 00:56:46;;;;;;;8.07;7.20;;;;;;;;;;5038197;28;20183;-94
2024/03/06 00:59:14;;;;;;;8.45;7.63;;;;;;;;;;5038766;28;20183;-94
2024/03/06 01:01:42;;;;;;;8.48;7.57;;;;;;;;;;5038363;28;20191;-93
2024/03/06 01:04:10;;;;;;;10.80;8.70;;;;;;;;;;5036420;28;20195;-94
2024/03/06 01:06:39;;;;;;;7.28;6.57;;;;;;;;;;5036204;28;20213;-94
2024/03/06 01:09:08;;;;;;;7.43;6.47;;;;;;;;;;5035944;28;20270;-94
2024/03/06 01:11:35;;;;;;;9.55;8.60;;;;;;;;;;5037072;28;20274;-95
2024/03/06 01:14:03;;;;;;;11.75;10.50;;;;;;;;;;5038356;28;20194;-95
2024/03/06 01:16:31;;;;;;;9.95;8.52;;;;;;;;;;5038453;28;20237;-94
2024/03/06 01:18:59;;;;;;;9.32;8.30;;;;;;;;;;5037664;28;20186;-94
2024/03/06 01:21:28;;;;;;;10.05;9.05;;;;;;;;;;5037432;28;20198;-94
2024/03/06 01:23:58;;;;;;;10.27;9.00;;;;;;;;;;5036985;28;20222;-94
2024/03/06 01:26:25;;;;;;;7.82;7.03;;;;;;;;;;5037024;28;20195;-93
2024/03/06 01:28:53;;;;;;;6.22;5.63;;;;;;;;;;5037081;28;20227;-95
2024/03/06 01:31:21;;;;;;;7.03;6.32;;;;;;;;;;5037155;28;20187;-94
2024/03/06 01:33:49;;;;;;;5.90;5.32;;;;;;;;;;5037301;28;20246;-95
2024/03/06 01:36:17;;;;;;;6.72;6.03;;;;;;;;;;5037394;28;20234;-95
2024/03/06 01:38:45;;;;;;;6.00;5.40;;;;;;;;;;5035619;28;20202;-94
2024/03/06 01:41:16;;;;;;;5.95;5.45;;;;;;;;;;5035528;28;20274;-94
2024/03/06 01:43:43;;;;;;;6.32;5.22;;;;;;;;;;5035621;28;20190;-94
2024/03/06 01:46:11;;;;;;;5.72;5.13;;;;;;;;;;5036413;28;20203;-94
2024/03/06 01:48:42;;;;;;;5.75;5.30;;;;;;;;;;5036836;28;20194;-94
2024/03/06 01:51:10;;;;;;;5.10;4.60;;;;;;;;;;5036563;28;20215;-94
2024/03/06 01:53:38;;;;;;;6.68;6.07;;;;;;;;;;5033595;28;20218;-95
2024/03/06 01:56:07;;;;;;;5.57;5.07;;;;;;;;;;5034250;28;20476;-95
2024/03/06 01:58:36;;;;;;;7.47;6.68;;;;;;;;;;5037910;28;20191;-95
2024/03/06 02:01:04;;;;;;;6.15;5.55;;;;;;;;;;5034812;28;20219;-94
2024/03/06 02:03:33;;;;;;;6.10;5.50;;;;;;;;;;5034183;28;20190;-94
2024/03/06 02:06:03;;;;;;;5.82;5.07;;;;;;;;;;5037859;28;20313;-94
2024/03/06 02:08:30;;;;;;;6.55;6.05;;;;;;;;;;5037903;28;20195;-95
2024/03/06 02:11:00;;;;;;;6.78;6.07;;;;;;;;;;5037170;28;20211;-95
2024/03/06 02:13:28;;;;;;;8.63;7.45;;;;;;;;;;5037571;28;20179;-94
2024/03/06 02:15:58;;;;;;;11.68;9.05;;;;;;;;;;5035505;28;20226;-93
2024/03/06 02:18:26;;;;;;;8.70;7.88;;;;;;;;;;5034256;28;20195;-94
2024/03/06 02:20:55;;;;;;;8.63;7.70;;;;;;;;;;5032376;28;20235;-95
2024/03/06 02:23:23;;;;;;;7.82;7.03;;;;;;;;;;5031473;28;20198;-95
2024/03/06 02:25:51;;;;;;;7.20;5.93;;;;;;;;;;5034673;28;20207;-94
2024/03/06 02:28:19;;;;;;;7.43;6.72;;;;;;;;;;5032935;28;20218;-95
2024/03/06 02:30:50;;;;;;;7.57;6.88;;;;;;;;;;5031636;28;20250;-94
2024/03/06 02:33:19;;;;;;;7.90;7.10;;;;;;;;;;5030210;28;20214;-94
2024/03/06 02:35:46;;;;;;;8.45;7.70;;;;;;;;;;5032414;28;20245;-95
2024/03/06 02:38:16;;;;;;;12.90;9.70;;;;;;;;;;5032704;28;20207;-93
2024/03/06 02:40:45;;;;;;;10.60;9.32;;;;;;;;;;5031444;28;20218;-94
2024/03/06 02:43:12;;;;;;;16.67;12.23;;;;;;;;;;5031528;28;20313;-95
2024/03/06 02:45:40;;;;;;;8.70;7.80;;;;;;;;;;5032664;28;20188;-94
2024/03/06 02:48:09;;;;;;;8.75;7.18;;;;;;;;;;5030402;28;20214;-94
2024/03/06 02:50:36;;;;;;;7.20;6.50;;;;;;;;;;5033510;28;20223;-94
2024/03/06 02:53:04;;;;;;;8.27;7.00;;;;;;;;;;5032948;28;20195;-95
2024/03/06 02:55:34;;;;;;;7.43;6.70;;;;;;;;;;5031750;28;20231;-94
2024/03/06 02:58:03;;;;;;;9.63;8.63;;;;;;;;;;5032817;28;20198;-95
2024/03/06 03:00:31;;;;;;;8.15;7.35;;;;;;;;;;5037276;28;20218;-94
2024/03/06 03:02:59;;;;;;;11.25;9.98;;;;;;;;;;5037184;28;20266;-93
2024/03/06 03:05:27;;;;;;;10.13;8.05;;;;;;;;;;5038672;28;20187;-94
2024/03/06 03:07:55;;;;;;;8.85;7.93;;;;;;;;;;5040927;28;20199;-95
2024/03/06 03:10:24;;;;;;;8.38;7.25;;;;;;;;;;5038442;28;20230;-93
2024/03/06 03:12:54;;;;;;;6.60;6.00;;;;;;;;;;5032821;28;20211;-94
2024/03/06 03:15:22;;;;;;;7.13;5.90;;;;;;;;;;5034935;28;20201;-94
2024/03/06 03:17:49;;;;;;;9.23;7.15;;;;;;;;;;5036278;28;20229;-95
2024/03/06 03:20:17;;;;;;;6.40;5.80;;;;;;;;;;5037257;28;20219;-94
2024/03/06 03:22:45;;;;;;;5.93;5.07;;;;;;;;;;5035049;28;20206;-95
2024/03/06 03:25:14;;;;;;;7.90;7.20;;;;;;;;;;5034880;28;20206;-94
2024/03/06 03:27:43;;;;;;;7.35;6.65;;;;;;;;;;5033702;28;20213;-94
2024/03/06 03:30:13;;;;;;;8.07;7.28;;;;;;;;;;5035664;28;20223;-94
2024/03/06 03:32:41;;;;;;;9.85;8.85;;;;;;;;;;5035559;28;20276;-94
2024/03/06 03:35:10;;;;;;;11.15;9.10;;;;;;;;;;5039370;28;20183;-95
2024/03/06 03:37:37;;;;;;;8.45;7.53;;;;;;;;;;5040269;28;20214;-93
2024/03/06 03:40:07;;;;;;;10.63;9.43;;;;;;;;;;5038035;28;20215;-93
2024/03/06 03:42:34;;;;;;;8.82;6.20;;;;;;;;;;5035659;28;20207;-94
2024/03/06 03:45:03;;;;;;;7.78;7.07;;;;;;;;;;5035958;28;20229;-95
2024/03/06 03:47:32;;;;;;;12.73;11.07;;;;;;;;;;5037917;28;20295;-94
2024/03/06 03:50:00;;;;;;;15.30;12.95;;;;;;;;;;5035434;28;20231;-95
2024/03/06 03:52:28;;;;;;;12.40;9.60;;;;;;;;;;5035289;28;20197;-95
2024/03/06 03:54:55;;;;;;;11.65;9.45;;;;;;;;;;5035366;28;20206;-94
2024/03/06 03:57:23;;;;;;;9.23;8.32;;;;;;;;;;5033230;28;20238;-94
2024/03/06 03:59:51;;;;;;;6.20;5.60;;;;;;;;;;5034270;28;20251;-94
2024/03/06 04:02:18;;;;;;;6.60;5.93;;;;;;;;;;5027937;28;20418;-93
2024/03/06 04:04:48;;;;;;;6.43;5.82;;;;;;;;;;5030861;28;20223;-94
2024/03/06 04:07:16;;;;;;;6.60;5.93;;;;;;;;;;5033247;28;20203;-94
2024/03/06 04:09:43;;;;;;;6.55;5.95;;;;;;;;;;5034690;28;20229;-95
2024/03/06 04:12:11;;;;;;;7.32;6.38;;;;;;;;;;5125417;22;20215;-93
2024/03/06 04:14:39;;;;;;;9.05;7.30;;;;;;;;;;5039487;28;20190;-94
2024/03/06 04:17:07;;;;;;;10.27;8.85;;;;;;;;;;5038445;28;20274;-95
2024/03/06 04:19:35;;;;;;;10.93;9.82;;;;;;;;;;5039471;28;20190;-95
2024/03/06 04:22:04;;;;;;;9.88;8.80;;;;;;;;;;5039136;28;20222;-93
2024/03/06 04:24:31;;;;;;;9.75;8.00;;;;;;;;;;5039311;28;20183;-94
2024/03/06 04:26:59;;;;;;;13.13;9.25;;;;;;;;;;5038496;28;20190;-95
2024/03/06 04:29:26;;;;;;;10.70;9.60;;;;;;;;;;5039260;28;20183;-93
2024/03/06 04:31:54;;;;;;;8.38;7.53;;;;;;;;;;5038947;28;20217;-94
2024/03/06 04:34:23;;;;;;;10.93;9.18;;;;;;;;;;5038959;28;20426;-95
2024/03/06 04:36:50;;;;;;;10.63;9.52;;;;;;;;;;5038863;28;20239;-94
2024/03/06 04:39:20;;;;;;;11.68;9.93;;;;;;;;;;5038980;28;20198;-95
2024/03/06 04:41:47;;;;;;;11.30;10.10;;;;;;;;;;5038847;28;20191;-93
2024/03/06 04:44:15;;;;;;;10.02;9.02;;;;;;;;;;5038842;28;20183;-93
2024/03/06 04:46:42;;;;;;;8.73;7.85;;;;;;;;;;5038952;28;20199;-95
2024/03/06 04:49:10;;;;;;;9.15;8.25;;;;;;;;;;5038800;28;20183;-94
2024/03/06 04:51:38;;;;;;;9.27;8.38;;;;;;;;;;5038591;28;20207;-95
2024/03/06 04:54:05;;;;;;;9.20;8.30;;;;;;;;;;5038588;28;20191;-94
2024/03/06 04:56:34;;;;;;;11.40;9.38;;;;;;;;;;5038509;28;20193;-96
2024/03/06 04:59:03;;;;;;;14.95;13.35;;;;;;;;;;5038700;28;20205;-94
2024/03/06 05:01:31;;;;;;;15.95;14.05;;;;;;;;;;5038560;28;20203;-95
2024/03/06 05:03:58;;;;;;;12.32;10.05;;;;;;;;;;5038508;28;20206;-94
2024/03/06 05:06:26;;;;;;;10.68;9.52;;;;;;;;;;5038525;28;20179;-95
2024/03/06 05:08:54;;;;;;;12.40;10.70;;;;;;;;;;5038617;28;20198;-94
2024/03/06 05:11:21;;;;;;;12.80;11.43;;;;;;;;;;5038234;28;20215;-94
2024/03/06 05:13:50;;;;;;;17.90;14.70;;;;;;;;;;5038372;28;20190;-93
2024/03/06 05:16:18;;;;;;;14.63;12.05;;;;;;;;;;5038361;28;20206;-94
2024/03/06 05:18:46;;;;;;;13.90;12.50;;;;;;;;;;5038138;28;20222;-94
2024/03/06 05:21:14;;;;;;;13.32;11.25;;;;;;;;;;5037293;28;20223;-95
2024/03/06 05:23:41;;;;;;;11.50;9.77;;;;;;;;;;5036470;28;20198;-93
2024/03/06 05:26:09;;;;;;;12.02;10.27;;;;;;;;;;5035915;28;20195;-94
2024/03/06 05:28:36;;;;;;;12.90;10.00;;;;;;;;;;5036397;28;20348;-94
2024/03/06 05:31:18;;;;;;;18.05;14.80;;;;;;;;;;5035986;28;20234;-94
2024/03/06 05:33:47;;;;;;;24.42;17.65;;;;;;;;;;5037533;28;20207;-94
2024/03/06 05:36:17;;;;;;;18.67;14.88;;;;;;;;;;5038020;28;20183;-95
2024/03/06 05:38:44;;;;;;;16.98;14.20;;;;;;;;;;5037962;28;20215;-93
2024/03/06 05:41:12;;;;;;;22.60;16.38;;;;;;;;;;5038023;28;20227;-94
2024/03/06 05:43:40;;;;;;;21.88;17.02;;;;;;;;;;5037853;28;20183;-93
2024/03/06 05:46:09;;;;;;;18.58;15.70;;;;;;;;;;5037976;28;20187;-95
2024/03/06 05:48:37;;;;;;;17.67;14.65;;;;;;;;;;5037853;28;20187;-94
2024/03/06 05:51:05;;;;;;;21.45;15.52;;;;;;;;;;5037732;28;20230;-95
2024/03/06 05:53:36;;;;;;;24.00;18.08;;;;;;;;;;5037673;28;20194;-95
2024/03/06 05:56:05;;;;;;;21.60;16.33;;;;;;;;;;5037426;28;20207;-94
2024/03/06 05:58:34;;;;;;;19.35;14.88;;;;;;;;;;5037657;28;20218;-94
2024/03/06 06:01:03;;;;;;;18.00;15.48;;;;;;;;;;5037657;28;20225;-93
2024/03/06 06:03:32;;;;;;;19.73;13.18;;;;;;;;;;5037583;28;20187;-93
2024/03/06 06:06:00;;;;;;;13.80;11.35;;;;;;;;;;5037763;28;20190;-94
2024/03/06 06:08:27;;;;;;;16.25;13.43;;;;;;;;;;5037567;28;20187;-95
2024/03/06 06:10:55;;;;;;;19.63;14.45;;;;;;;;;;5037534;28;20210;-96
2024/03/06 06:13:23;;;;;;;16.88;14.00;;;;;;;;;;5037562;28;20187;-95
2024/03/06 06:15:50;;;;;;;11.02;9.88;;;;;;;;;;5037673;28;21088;-96
2024/03/06 06:18:18;;;;;;;14.35;11.75;;;;;;;;;;5037439;28;20222;-96
2024/03/06 06:20:47;;;;;;;15.68;14.00;;;;;;;;;;5037643;28;20234;-95
2024/03/06 06:23:15;;;;;;;12.38;11.07;;;;;;;;;;5037287;28;20369;-95
2024/03/06 06:25:43;;;;;;;13.40;10.65;;;;;;;;;;5037594;28;20183;-95
2024/03/06 06:28:11;;;;;;;13.98;11.23;;;;;;;;;;5037571;28;20191;-96
2024/03/06 06:30:39;;;;;;;9.98;8.85;;;;;;;;;;5037349;28;20209;-95
2024/03/06 06:33:07;;;;;;;9.93;8.85;;;;;;;;;;5037278;28;20258;-95
2024/03/06 06:35:35;;;;;;;10.90;8.90;;;;;;;;;;5037299;28;20263;-95
2024/03/06 06:38:05;;;;;;;13.20;10.32;;;;;;;;;;5037273;28;20207;-96
2024/03/06 06:40:33;;;;;;;13.05;9.52;;;;;;;;;;5038878;28;20250;-95
2024/03/06 06:43:00;;;;;;;13.75;10.93;;;;;;;;;;5041114;28;20186;-95
2024/03/06 06:45:28;;;;;;;18.92;15.65;;;;;;;;;;5041248;28;20218;-95
2024/03/06 06:47:55;;;;;;;22.55;16.48;;;;;;;;;;5041230;28;20187;-96
2024/03/06 06:50:25;;;;;;;21.38;16.48;;;;;;;;;;5041035;28;20203;-96
2024/03/06 06:52:53;;;;;;;18.55;12.77;;;;;;;;;;5040910;28;20199;-96
2024/03/06 06:55:24;;;;;;;21.23;14.63;;;;;;;;;;5040997;28;20187;-96
2024/03/06 06:57:52;;;;;;;19.40;15.27;;;;;;;;;;5040790;28;20211;-95
2024/03/06 07:00:22;;;;;;;27.52;19.10;;;;;;;;;;5040842;28;20187;-94
2024/03/06 07:02:50;;;;;;;30.35;20.45;;;;;;;;;;5040681;28;20190;-93
2024/03/06 07:05:18;;;;;;;31.08;20.98;;;;;;;;;;5040814;28;20242;-93
2024/03/06 07:07:46;;;;;;;26.60;18.80;;;;;;;;;;5040884;28;20183;-95
2024/03/06 07:10:14;;;;;;;18.38;14.35;;;;;;;;;;5040709;28;20183;-92
2024/03/06 07:12:43;;;;;;;14.57;12.35;;;;;;;;;;5040307;28;20187;-92
2024/03/06 07:15:11;;;;;;;16.63;14.40;;;;;;;;;;5040675;28;20190;-93
2024/03/06 07:17:39;;;;;;;12.25;10.18;;;;;;;;;;5040640;28;20226;-94
2024/03/06 07:20:08;;;;;;;18.65;12.88;;;;;;;;;;5040385;28;20285;-93
2024/03/06 07:22:36;;;;;;;24.63;17.85;;;;;;;;;;5040279;28;20195;-95
2024/03/06 07:25:05;;;;;;;28.92;20.85;;;;;;;;;;5040444;28;20189;-93
2024/03/06 07:27:33;;;;;;;23.15;17.83;;;;;;;;;;5040329;28;20187;-93
2024/03/06 07:30:02;;;;;;;26.95;19.13;;;;;;;;;;5040308;28;20183;-93
2024/03/06 07:32:30;;;;;;;22.23;17.42;;;;;;;;;;5040036;28;20203;-93
2024/03/06 07:34:58;;;;;;;22.02;16.95;;;;;;;;;;5040350;28;20214;-93
2024/03/06 07:37:26;;;;;;;22.45;16.45;;;;;;;;;;5040314;28;20190;-94
2024/03/06 07:39:53;;;;;;;31.23;19.20;;;;;;;;;;5039973;28;20219;-93
2024/03/06 07:42:21;;;;;;;23.30;17.27;;;;;;;;;;5039736;28;20229;-93
2024/03/06 07:44:48;;;;;;;20.10;16.77;;;;;;;;;;5040085;28;20190;-93
2024/03/06 07:47:17;;;;;;;19.02;15.10;;;;;;;;;;5039940;28;20188;-95
2024/03/06 07:49:45;;;;;;;24.50;17.02;;;;;;;;;;5040021;28;20196;-96
2024/03/06 07:52:13;;;;;;;18.92;14.20;;;;;;;;;;5038303;28;20214;-96
2024/03/06 07:54:41;;;;;;;24.13;16.30;;;;;;;;;;5039975;28;20197;-95
2024/03/06 07:57:09;;;;;;;22.55;17.17;;;;;;;;;;5039623;28;20187;-95
2024/03/06 07:59:37;;;;;;;26.65;17.33;;;;;;;;;;5039647;28;20254;-96
2024/03/06 08:02:06;;;;;;;22.73;16.08;;;;;;;;;;5039309;28;20207;-96
2024/03/06 08:04:36;;;;;;;25.23;16.95;;;;;;;;;;5039677;28;20186;-96
2024/03/06 08:07:04;;;;;;;21.13;15.40;;;;;;;;;;5039637;28;20225;-94
2024/03/06 08:09:31;;;;;;;17.98;14.30;;;;;;;;;;5039637;28;20270;-93
2024/03/06 08:11:59;;;;;;;26.85;18.98;;;;;;;;;;5039223;28;20231;-93
2024/03/06 08:14:27;;;;;;;23.27;14.80;;;;;;;;;;5039413;28;20207;-93
2024/03/06 08:16:55;;;;;;;15.98;11.60;;;;;;;;;;5039341;28;20187;-93
2024/03/06 08:19:24;;;;;;;17.75;13.40;;;;;;;;;;5039262;28;20233;-93
2024/03/06 08:21:53;;;;;;;14.10;12.52;;;;;;;;;;5039130;28;20205;-94
2024/03/06 08:24:21;;;;;;;31.20;19.38;;;;;;;;;;5039126;28;20191;-94
2024/03/06 08:26:49;;;;;;;34.47;21.58;;;;;;;;;;5039229;28;20202;-93
2024/03/06 08:29:17;;;;;;;32.45;23.63;;;;;;;;;;5038997;28;20226;-92
2024/03/06 08:31:44;;;;;;;24.63;16.85;;;;;;;;;;5038968;28;20396;-94
2024/03/06 08:34:12;;;;;;;29.48;21.73;;;;;;;;;;5038938;28;20190;-93
2024/03/06 08:36:39;;;;;;;34.13;24.63;;;;;;;;;;5039123;28;20213;-93
2024/03/06 08:39:12;;;;;;;40.20;25.00;;;;;;;;;;5039092;28;20199;-94
2024/03/06 08:41:40;;;;;;;30.58;21.40;;;;;;;;;;5038722;28;20207;-94
2024/03/06 08:44:07;;;;;;;30.20;22.23;;;;;;;;;;5038907;28;20214;-94
2024/03/06 08:46:35;;;;;;;31.23;21.23;;;;;;;;;;5039123;28;20183;-95
2024/03/06 08:49:02;;;;;;;31.52;22.85;;;;;;;;;;5038934;28;20183;-94
2024/03/06 08:51:30;;;;;;;25.80;17.85;;;;;;;;;;5038535;28;20207;-93
2024/03/06 08:53:58;;;;;;;21.58;15.65;;;;;;;;;;5038557;28;20203;-95
2024/03/06 08:56:27;;;;;;;27.33;19.33;;;;;;;;;;5037957;28;20219;-94
2024/03/06 08:58:54;;;;;;;31.05;20.40;;;;;;;;;;5037960;28;20198;-94
2024/03/06 09:01:22;;;;;;;27.70;20.83;;;;;;;;;;5037777;28;20215;-95
2024/03/06 09:03:49;;;;;;;34.63;23.02;;;;;;;;;;5036339;28;20206;-95
2024/03/06 09:06:17;;;;;;;33.42;22.67;;;;;;;;;;5036943;28;20187;-95
2024/03/06 09:08:44;;;;;;;32.05;22.45;;;;;;;;;;5037345;28;20190;-94
2024/03/06 09:11:12;;;;;;;45.90;26.05;;;;;;;;;;5037118;28;20215;-94
2024/03/06 09:13:41;;;;;;;38.75;24.40;;;;;;;;;;5036622;28;20206;-93
2024/03/06 09:16:08;;;;;;;29.90;20.83;;;;;;;;;;5036841;28;20206;-94
2024/03/06 09:18:36;;;;;;;28.80;17.40;;;;;;;;;;5036467;28;20203;-94
2024/03/06 09:21:04;;;;;;;18.38;14.15;;;;;;;;;;5035942;28;20234;-93
2024/03/06 09:23:32;;;;;;;16.63;12.57;;;;;;;;;;5036201;28;20198;-93
2024/03/06 09:26:00;;;;;;;31.63;20.42;;;;;;;;;;5036504;28;20227;-94
2024/03/06 09:28:28;;;;;;;22.25;15.52;;;;;;;;;;5035939;28;20206;-94
2024/03/06 09:30:57;;;;;;;27.75;20.88;;;;;;;;;;5036397;28;20223;-94
2024/03/06 09:33:24;;;;;;;30.05;22.45;;;;;;;;;;5036291;28;20198;-94
2024/03/06 09:35:52;;;;;;;24.73;19.02;;;;;;;;;;5036524;28;20214;-94
2024/03/06 09:38:19;;;;;;;33.47;22.55;;;;;;;;;;5036073;28;20210;-95
2024/03/06 09:40:48;;;;;;;25.85;17.40;;;;;;;;;;5035963;28;20231;-94
2024/03/06 09:43:16;;;;;;;20.58;15.80;;;;;;;;;;5035047;28;20207;-92
2024/03/06 09:45:45;;;;;;;16.17;14.07;;;;;;;;;;5036824;28;20187;-95
2024/03/06 09:48:14;;;;;;;17.98;12.98;;;;;;;;;;5037805;28;20195;-95
2024/03/06 09:50:46;;;;;;;14.85;12.27;;;;;;;;;;5035936;28;20207;-94
2024/03/06 09:53:15;;;;;;;15.45;11.75;;;;;;;;;;5036173;28;20218;-94
2024/03/06 09:55:45;;;;;;;14.70;12.73;;;;;;;;;;5036350;28;20203;-93
2024/03/06 09:58:12;;;;;;;16.27;11.65;;;;;;;;;;5036474;28;20229;-94
2024/03/06 10:00:40;;;;;;;15.90;13.75;;;;;;;;;;5036577;28;20214;-94
2024/03/06 10:03:08;;;;;;;16.67;13.60;;;;;;;;;;5036331;28;20194;-94
2024/03/06 10:05:38;;;;;;;14.05;11.68;;;;;;;;;;5036230;28;20225;-94
2024/03/06 10:08:07;;;;;;;21.73;16.80;;;;;;;;;;5034961;28;20187;-95
2024/03/06 11:26:40;;;;;;;24.38;18.45;;;;;;;;;;4998269;28;20235;-95
2024/03/06 11:29:09;;;;;;;17.85;13.13;;;;;;;;;;4999826;28;20216;-94
2024/03/06 11:31:37;;;;;;;12.10;10.48;;;;;;;;;;4998450;28;20208;-94
2024/03/06 11:34:09;;;;;;;13.80;12.18;;;;;;;;;;4998889;28;20236;-93
2024/03/06 11:36:38;;;;;;;20.70;15.88;;;;;;;;;;4999300;28;20200;-95
2024/03/06 11:39:07;;;;;;;18.20;14.07;;;;;;;;;;5116299;22;20261;-95
2024/03/06 11:41:50;;;;;;;14.73;12.93;;;;;;;;;;5034409;28;20214;-94
2024/03/06 11:44:20;;;;;;;13.05;11.68;;;;;;;;;;5034077;28;20211;-94
2024/03/06 11:46:49;;;;;;;17.90;12.95;;;;;;;;;;5035092;28;20207;-95
2024/03/06 11:49:20;;;;;;;23.02;17.63;;;;;;;;;;5035239;28;20230;-94
2024/03/06 11:51:48;;;;;;;18.67;15.65;;;;;;;;;;5035432;28;20207;-95
2024/03/06 11:54:17;;;;;;;19.67;15.48;;;;;;;;;;5035037;28;20210;-94
2024/03/06 11:56:47;;;;;;;16.15;13.00;;;;;;;;;;5036237;28;20193;-94
2024/03/06 11:59:16;;;;;;;12.80;10.77;;;;;;;;;;5038803;28;20223;-95
2024/03/06 12:01:43;;;;;;;13.65;12.25;;;;;;;;;;5034642;28;20721;-94
2024/03/06 12:04:11;;;;;;;9.80;8.80;;;;;;;;;;5034832;28;20211;-95
2024/03/06 12:06:39;;;;;;;11.95;10.75;;;;;;;;;;5034920;28;20210;-95
2024/03/06 12:09:10;;;;;;;15.05;13.50;;;;;;;;;;5035088;28;20215;-94
2024/03/06 12:11:38;;;;;;;15.52;12.07;;;;;;;;;;5034532;28;20266;-95
2024/03/06 12:14:06;;;;;;;11.65;9.88;;;;;;;;;;5034298;28;20219;-95
2024/03/06 12:16:35;;;;;;;18.52;13.63;;;;;;;;;;5034760;28;20218;-94
2024/03/06 12:19:02;;;;;;;20.52;15.55;;;;;;;;;;5034916;28;20227;-95
2024/03/06 12:21:31;;;;;;;27.02;19.50;;;;;;;;;;5033137;28;20225;-95
2024/03/06 12:24:06;;;;;;;16.60;12.77;;;;;;;;;;5036852;28;20211;-95
2024/03/06 12:26:33;;;;;;;14.70;12.20;;;;;;;;;;5037881;28;20186;-94
2024/03/06 12:29:08;;;;;;;16.40;13.55;;;;;;;;;;5034853;28;20238;-94
2024/03/06 12:31:40;;;;;;;15.40;12.25;;;;;;;;;;5034282;28;20214;-95
2024/03/06 12:34:08;;;;;;;16.35;13.00;;;;;;;;;;5038705;28;20255;-95
2024/03/06 12:36:36;;;;;;;14.00;10.82;;;;;;;;;;5039115;28;20214;-94
2024/03/06 12:39:12;;;;;;;17.05;15.25;;;;;;;;;;5035765;28;20253;-95
2024/03/06 12:41:40;;;;;;;12.13;10.80;;;;;;;;;;5035009;28;20214;-95
2024/03/06 12:44:08;;;;;;;12.90;11.63;;;;;;;;;;5036464;28;20199;-95
2024/03/06 12:46:37;;;;;;;15.48;12.40;;;;;;;;;;5037056;28;20217;-95
2024/03/06 12:49:04;;;;;;;17.75;14.95;;;;;;;;;;5036544;28;20227;-95
2024/03/06 12:51:32;;;;;;;13.38;11.48;;;;;;;;;;5038679;28;20191;-94
2024/03/06 12:54:00;;;;;;;11.40;9.85;;;;;;;;;;5036280;28;20203;-95
2024/03/06 12:56:28;;;;;;;18.25;14.57;;;;;;;;;;5034827;28;20191;-95
2024/03/06 12:58:56;;;;;;;22.77;18.60;;;;;;;;;;5038591;28;20218;-94
2024/03/06 13:01:24;;;;;;;21.08;17.38;;;;;;;;;;5038663;28;20229;-95
2024/03/06 13:03:53;;;;;;;19.25;16.58;;;;;;;;;;5038620;28;20188;-95
2024/03/06 13:06:21;;;;;;;16.15;14.45;;;;;;;;;;5038558;28;20198;-95
2024/03/06 13:08:49;;;;;;;17.90;15.65;;;;;;;;;;5038523;28;20219;-95
2024/03/06 13:11:17;;;;;;;14.35;12.52;;;;;;;;;;5038602;28;20221;-94
2024/03/06 13:13:44;;;;;;;16.65;11.38;;;;;;;;;;5038361;28;20198;-95
2024/03/06 13:16:12;;;;;;;12.02;10.77;;;;;;;;;;5038450;28;20194;-95
2024/03/06 13:18:39;;;;;;;14.77;13.20;;;;;;;;;;5038295;28;20214;-94
2024/03/06 13:21:08;;;;;;;21.52;16.02;;;;;;;;;;5038409;28;20179;-96
2024/03/06 13:23:36;;;;;;;13.32;11.93;;;;;;;;;;5038071;28;20199;-95
2024/03/06 13:26:04;;;;;;;16.88;15.07;;;;;;;;;;5038232;28;20187;-94
2024/03/06 13:28:32;;;;;;;14.88;13.15;;;;;;;;;;5038101;28;20202;-95
2024/03/06 13:31:00;;;;;;;15.75;14.18;;;;;;;;;;5038376;28;20179;-94
2024/03/06 13:33:27;;;;;;;17.25;15.05;;;;;;;;;;5037966;28;20183;-95
2024/03/06 13:35:55;;;;;;;17.63;14.40;;;;;;;;;;5038061;28;20242;-95
2024/03/06 13:38:24;;;;;;;18.30;15.07;;;;;;;;;;5037976;28;20230;-94
2024/03/06 13:40:52;;;;;;;18.67;16.73;;;;;;;;;;5038105;28;20209;-94
2024/03/06 13:43:22;;;;;;;20.45;17.17;;;;;;;;;;5037810;28;20206;-95
2024/03/06 13:45:51;;;;;;;19.52;16.70;;;;;;;;;;5038021;28;20246;-96
2024/03/06 13:48:19;;;;;;;17.77;15.95;;;;;;;;;;5037903;28;20216;-95
2024/03/06 13:50:47;;;;;;;12.43;11.13;;;;;;;;;;5037812;28;20195;-95
2024/03/06 13:53:15;;;;;;;19.58;15.32;;;;;;;;;;5037596;28;20183;-95
2024/03/06 13:55:44;;;;;;;18.17;15.13;;;;;;;;;;5037890;28;20210;-94
2024/03/06 13:58:11;;;;;;;19.38;15.90;;;;;;;;;;5037599;28;20202;-95
2024/03/06 14:00:39;;;;;;;18.65;15.75;;;;;;;;;;5037808;28;20194;-95
2024/03/06 14:03:07;;;;;;;17.73;15.68;;;;;;;;;;5037530;28;20203;-96
2024/03/06 14:05:34;;;;;;;18.63;15.50;;;;;;;;;;5037691;28;20183;-96
2024/03/06 14:08:02;;;;;;;25.80;17.42;;;;;;;;;;5037631;28;20226;-95
2024/03/06 14:10:33;;;;;;;16.85;14.00;;;;;;;;;;5037621;28;20176;-95
2024/03/06 14:13:02;;;;;;;19.85;15.80;;;;;;;;;;5037513;28;20266;-94
2024/03/06 14:15:30;;;;;;;13.40;12.00;;;;;;;;;;5037626;28;20183;-94
2024/03/06 14:17:57;;;;;;;11.90;10.70;;;;;;;;;;5037668;28;20199;-95
2024/03/06 14:20:25;;;;;;;16.27;12.68;;;;;;;;;;5037610;28;20193;-95
2024/03/06 14:22:53;;;;;;;20.60;14.73;;;;;;;;;;5037308;28;20229;-94
2024/03/06 14:25:20;;;;;;;17.77;15.48;;;;;;;;;;5037549;28;20175;-95
2024/03/06 14:27:48;;;;;;;21.92;17.50;;;;;;;;;;5037493;28;20194;-96
2024/03/06 14:30:19;;;;;;;20.83;17.10;;;;;;;;;;5037497;28;20232;-94
2024/03/06 14:32:47;;;;;;;15.48;13.52;;;;;;;;;;5037309;28;20199;-95
2024/03/06 14:35:15;;;;;;;17.98;15.38;;;;;;;;;;5037598;28;20194;-94
2024/03/06 14:37:42;;;;;;;15.98;14.30;;;;;;;;;;5037140;28;20195;-95
2024/03/06 14:40:12;;;;;;;12.88;11.50;;;;;;;;;;5037489;28;20183;-95
2024/03/06 14:42:40;;;;;;;18.65;15.73;;;;;;;;;;5037164;28;20207;-95
2024/03/06 14:45:09;;;;;;;18.35;14.75;;;;;;;;;;5037515;28;20203;-94
2024/03/06 14:47:38;;;;;;;17.05;15.23;;;;;;;;;;5037264;28;20207;-93
2024/03/06 14:50:07;;;;;;;17.65;15.85;;;;;;;;;;5037282;28;20183;-95
2024/03/06 14:52:35;;;;;;;17.00;14.32;;;;;;;;;;5037026;28;20191;-94
2024/03/06 14:55:04;;;;;;;15.20;13.60;;;;;;;;;;5037414;28;20187;-94
2024/03/06 14:57:32;;;;;;;15.93;14.30;;;;;;;;;;5036960;28;20270;-94
2024/03/06 15:00:00;;;;;;;19.13;16.90;;;;;;;;;;5037261;28;20182;-94
2024/03/06 15:02:27;;;;;;;16.02;14.00;;;;;;;;;;5039600;28;20211;-94
2024/03/06 15:04:58;;;;;;;18.25;15.38;;;;;;;;;;5040996;28;20190;-94
2024/03/06 15:07:25;;;;;;;17.90;14.20;;;;;;;;;;5040719;28;20211;-94
2024/03/06 15:09:53;;;;;;;17.15;14.50;;;;;;;;;;5040933;28;20198;-93
2024/03/06 15:12:21;;;;;;;18.30;15.90;;;;;;;;;;5040573;28;20202;-95
2024/03/06 15:14:48;;;;;;;17.92;14.90;;;;;;;;;;5040722;28;20194;-93
2024/03/06 15:17:16;;;;;;;18.13;15.25;;;;;;;;;;5040677;28;20179;-95
2024/03/06 15:19:43;;;;;;;19.92;17.83;;;;;;;;;;5040736;28;20270;-93
2024/03/06 15:22:13;;;;;;;22.00;16.90;;;;;;;;;;5040431;28;20221;-94
2024/03/06 15:24:40;;;;;;;19.95;15.23;;;;;;;;;;5040472;28;20238;-94
2024/03/06 15:27:08;;;;;;;20.42;16.90;;;;;;;;;;5040414;28;20205;-93
2024/03/06 15:29:35;;;;;;;18.02;15.23;;;;;;;;;;5040394;28;20171;-93
2024/03/06 15:32:03;;;;;;;17.45;15.02;;;;;;;;;;5040246;28;20198;-95
2024/03/06 15:34:31;;;;;;;15.75;14.05;;;;;;;;;;5040330;28;20207;-94
2024/03/06 15:36:59;;;;;;;17.17;15.38;;;;;;;;;;5040313;28;20191;-95
2024/03/06 15:39:28;;;;;;;17.23;15.48;;;;;;;;;;5039244;28;20270;-94
2024/03/06 15:41:56;;;;;;;18.35;15.50;;;;;;;;;;5039062;28;20192;-95
2024/03/06 15:44:24;;;;;;;19.17;15.90;;;;;;;;;;5038925;28;20294;-95
2024/03/06 15:46:52;;;;;;;21.58;16.38;;;;;;;;;;5039044;28;20183;-93
2024/03/06 15:49:24;;;;;;;24.33;17.83;;;;;;;;;;5038932;28;20219;-93